createdAt,value
2019-06-27T00:02:42.896Z,90.00
2019-06-27T00:05:48.117Z,90.00
2019-06-27T00:08:53.555Z,90.10
2019-06-27T00:11:58.583Z,90.00
2019-06-27T00:15:03.544Z,90.00
2019-06-27T00:18:08.485Z,90.10
2019-06-27T00:21:13.608Z,90.20
2019-06-27T00:24:18.543Z,90.30
2019-06-27T00:27:23.408Z,90.30
2019-06-27T00:30:28.334Z,90.30
2019-06-27T00:33:33.601Z,90.30
2019-06-27T00:36:38.500Z,90.40
2019-06-27T00:39:43.643Z,90.30
2019-06-27T00:42:48.577Z,90.50
2019-06-27T00:45:53.724Z,90.60
2019-06-27T00:48:59.520Z,90.60
2019-06-27T00:52:04.533Z,90.60
2019-06-27T00:55:10.076Z,90.70
2019-06-27T00:58:15.020Z,90.80
2019-06-27T01:01:19.849Z,90.90
2019-06-27T01:04:24.818Z,90.80
2019-06-27T01:07:29.817Z,90.80
2019-06-27T01:10:35.009Z,91.10
2019-06-27T01:13:40.108Z,91.10
2019-06-27T01:16:45.170Z,90.70
2019-06-27T01:19:50.165Z,90.80
2019-06-27T01:23:13.954Z,90.70
2019-06-27T01:26:18.879Z,90.70
2019-06-27T01:29:23.852Z,90.80
2019-06-27T01:32:28.755Z,90.90
2019-06-27T01:35:33.679Z,90.90
2019-06-27T01:38:38.640Z,91.10
2019-06-27T01:41:43.519Z,91.10
2019-06-27T01:45:15.991Z,91.20
2019-06-27T01:48:20.933Z,91.30
2019-06-27T01:51:26.034Z,91.50
2019-06-27T01:54:31.130Z,91.50
2019-06-27T01:57:46.241Z,91.70
2019-06-27T02:00:42.663Z,91.80
2019-06-27T02:03:47.369Z,91.90
2019-06-27T02:06:52.107Z,91.90
2019-06-27T02:09:57.090Z,91.90
2019-06-27T02:13:02.388Z,92.00
2019-06-27T02:16:07.366Z,92.10
2019-06-27T02:19:12.339Z,91.90
2019-06-27T02:22:17.486Z,91.90
2019-06-27T02:25:22.746Z,92.00
2019-06-27T02:28:27.723Z,92.00
2019-06-27T02:31:32.721Z,92.30
2019-06-27T02:34:37.540Z,91.90
2019-06-27T02:37:42.568Z,91.80
2019-06-27T02:40:47.675Z,91.70
2019-06-27T02:43:52.694Z,91.70
2019-06-27T02:46:57.681Z,91.90
2019-06-27T02:50:02.627Z,91.80
2019-06-27T02:53:07.708Z,91.80
2019-06-27T02:56:12.682Z,91.80
2019-06-27T02:59:17.773Z,91.90
2019-06-27T03:02:22.894Z,91.90
2019-06-27T03:05:27.827Z,92.00
2019-06-27T03:08:51.573Z,92.20
2019-06-27T03:12:00.037Z,92.10
2019-06-27T03:15:03.302Z,92.30
2019-06-27T03:18:09.737Z,92.20
2019-06-27T03:21:14.728Z,92.20
2019-06-27T03:24:19.751Z,92.40
2019-06-27T03:27:24.913Z,92.50
2019-06-27T03:30:29.754Z,92.50
2019-06-27T03:33:34.778Z,92.60
2019-06-27T03:36:39.933Z,92.70
2019-06-27T03:39:44.894Z,92.70
2019-06-27T03:42:50.201Z,92.70
2019-06-27T03:45:55.353Z,92.70
2019-06-27T03:49:00.474Z,92.80
2019-06-27T03:52:05.373Z,92.90
2019-06-27T03:55:12.616Z,92.80
2019-06-27T03:58:17.519Z,92.70
2019-06-27T04:01:22.470Z,92.80
2019-06-27T04:04:27.621Z,92.80
2019-06-27T04:07:32.743Z,92.60
2019-06-27T04:10:37.843Z,92.50
2019-06-27T04:13:43.018Z,92.30
2019-06-27T04:16:49.444Z,92.20
2019-06-27T04:19:54.751Z,92.00
2019-06-27T04:23:00.016Z,91.90
2019-06-27T04:26:05.074Z,91.80
2019-06-27T04:29:10.172Z,91.50
2019-06-27T04:32:15.420Z,91.40
2019-06-27T04:35:20.505Z,91.30
2019-06-27T04:38:25.707Z,91.30
2019-06-27T04:41:30.861Z,91.10
2019-06-27T04:44:35.711Z,90.90
2019-06-27T04:47:40.715Z,90.80
2019-06-27T04:50:45.878Z,90.60
2019-06-27T04:53:50.759Z,90.30
2019-06-27T04:56:55.648Z,90.40
2019-06-27T05:00:00.646Z,90.10
2019-06-27T05:03:05.608Z,89.70
2019-06-27T05:06:10.700Z,90.10
2019-06-27T05:09:15.920Z,88.80
2019-06-27T05:12:20.763Z,88.20
2019-06-27T05:15:25.828Z,87.50
2019-06-27T05:18:31.578Z,87.00
2019-06-27T05:21:36.882Z,86.70
2019-06-27T05:24:41.916Z,85.90
2019-06-27T05:27:47.064Z,84.90
2019-06-27T05:30:52.014Z,85.00
2019-06-27T05:33:57.059Z,84.00
2019-06-27T05:37:02.020Z,83.10
2019-06-27T05:40:07.101Z,81.20
2019-06-27T05:43:12.086Z,80.70
2019-06-27T05:46:17.782Z,80.00
2019-06-27T05:49:22.946Z,80.10
2019-06-27T05:52:28.117Z,80.50
2019-06-27T05:55:33.273Z,80.50
2019-06-27T05:58:38.459Z,78.60
2019-06-27T06:01:43.702Z,79.20
2019-06-27T06:04:48.736Z,78.80
2019-06-27T06:07:53.999Z,78.20
2019-06-27T06:10:59.007Z,77.00
2019-06-27T06:14:04.488Z,76.60
2019-06-27T06:17:09.623Z,77.30
2019-06-27T06:20:15.262Z,76.30
2019-06-27T06:23:20.348Z,71.20
2019-06-27T06:26:25.695Z,72.50
2019-06-27T06:29:30.709Z,71.60
2019-06-27T06:32:35.663Z,70.70
2019-06-27T06:35:40.787Z,67.00
2019-06-27T06:38:46.032Z,66.20
2019-06-27T06:41:50.981Z,65.10
2019-06-27T06:44:55.927Z,64.50
2019-06-27T06:48:01.050Z,58.40
2019-06-27T06:51:06.040Z,56.00
2019-06-27T06:54:11.027Z,54.70
2019-06-27T06:57:16.061Z,53.10
2019-06-27T07:00:21.457Z,55.40
2019-06-27T07:03:26.594Z,54.50
2019-06-27T07:06:31.722Z,52.30
2019-06-27T07:09:36.672Z,49.80
2019-06-27T07:12:41.492Z,48.50
2019-06-27T07:15:46.483Z,46.50
2019-06-27T07:18:51.527Z,44.80
2019-06-27T07:21:56.530Z,44.70
2019-06-27T07:25:01.979Z,43.10
2019-06-27T07:28:07.291Z,42.10
2019-06-27T07:31:17.807Z,41.10
2019-06-27T07:34:19.168Z,41.20
2019-06-27T07:37:24.303Z,39.60
2019-06-27T07:40:29.485Z,39.70
2019-06-27T07:43:34.426Z,39.40
2019-06-27T07:46:39.598Z,39.20
2019-06-27T07:49:44.697Z,40.40
2019-06-27T07:52:49.639Z,39.90
2019-06-27T07:55:54.756Z,40.60
2019-06-27T07:58:59.752Z,41.60
2019-06-27T08:02:04.640Z,42.10
2019-06-27T08:05:10.396Z,43.50
2019-06-27T08:08:15.285Z,44.90
2019-06-27T08:11:20.379Z,45.10
2019-06-27T08:14:25.744Z,44.10
2019-06-27T08:17:31.201Z,44.80
2019-06-27T08:20:36.286Z,45.20
2019-06-27T08:23:42.132Z,45.80
2019-06-27T08:26:47.214Z,47.00
2019-06-27T08:29:52.111Z,47.20
2019-06-27T08:32:57.204Z,47.90
2019-06-27T08:36:02.450Z,48.50
2019-06-27T08:39:07.986Z,47.20
2019-06-27T08:42:12.924Z,48.10
2019-06-27T08:45:17.957Z,49.70
2019-06-27T08:48:22.928Z,49.90
2019-06-27T08:51:27.844Z,49.50
2019-06-27T08:54:32.968Z,49.10
2019-06-27T08:57:37.911Z,49.20
2019-06-27T09:00:45.847Z,50.20
2019-06-27T09:03:49.809Z,49.50
2019-06-27T09:06:57.414Z,49.20
2019-06-27T09:10:02.628Z,51.20
2019-06-27T09:13:07.902Z,51.10
2019-06-27T09:16:12.947Z,51.10
2019-06-27T09:19:17.916Z,50.40
2019-06-27T09:22:23.045Z,50.30
2019-06-27T09:25:28.093Z,50.20
2019-06-27T09:28:33.132Z,49.50
2019-06-27T09:31:38.148Z,48.10
2019-06-27T09:34:43.012Z,46.80
2019-06-27T09:37:48.088Z,45.70
2019-06-27T09:40:53.298Z,45.60
2019-06-27T09:43:58.383Z,46.60
2019-06-27T09:47:03.369Z,46.00
2019-06-27T09:50:09.099Z,46.20
2019-06-27T09:53:14.468Z,45.60
2019-06-27T09:56:38.431Z,45.10
2019-06-27T09:59:46.397Z,44.90
2019-06-27T10:02:51.388Z,43.80
2019-06-27T10:05:56.548Z,44.30
2019-06-27T10:09:01.552Z,45.10
2019-06-27T10:12:06.736Z,43.40
2019-06-27T10:15:11.824Z,43.40
2019-06-27T10:18:16.910Z,42.60
2019-06-27T10:21:21.945Z,41.70
2019-06-27T10:24:27.224Z,38.30
2019-06-27T10:27:32.341Z,37.50
2019-06-27T10:30:37.170Z,38.70
2019-06-27T10:33:42.106Z,36.80
2019-06-27T10:36:47.077Z,39.00
2019-06-27T10:39:52.271Z,40.00
2019-06-27T10:42:57.437Z,38.90
2019-06-27T10:46:02.112Z,39.80
2019-06-27T10:49:06.908Z,39.70
2019-06-27T10:52:11.994Z,39.60
2019-06-27T10:55:17.173Z,39.40
2019-06-27T10:58:22.014Z,38.30
2019-06-27T11:01:27.065Z,38.40
2019-06-27T11:04:32.130Z,35.20
2019-06-27T11:07:40.596Z,34.70
2019-06-27T11:10:43.823Z,36.00
2019-06-27T11:13:58.246Z,34.70
2019-06-27T11:16:55.631Z,34.40
2019-06-27T11:20:00.791Z,34.90
2019-06-27T11:23:06.028Z,34.50
2019-06-27T11:26:11.022Z,32.10
2019-06-27T11:29:16.121Z,33.00
2019-06-27T11:32:21.082Z,33.60
2019-06-27T11:35:27.081Z,33.10
2019-06-27T11:38:32.256Z,31.40
2019-06-27T11:41:37.339Z,31.80
2019-06-27T11:44:42.332Z,32.20
2019-06-27T11:47:47.630Z,32.40
2019-06-27T11:50:52.877Z,33.50
2019-06-27T11:53:57.873Z,33.20
2019-06-27T11:57:02.862Z,32.50
2019-06-27T12:00:08.078Z,32.50
2019-06-27T12:03:13.153Z,33.00
2019-06-27T12:06:18.491Z,32.00
2019-06-27T12:09:24.044Z,31.60
2019-06-27T12:12:29.184Z,31.60
2019-06-27T12:15:37.187Z,32.30
2019-06-27T12:18:42.161Z,32.50
2019-06-27T12:21:47.201Z,32.40
2019-06-27T12:24:52.279Z,31.60
2019-06-27T12:27:57.429Z,30.00
2019-06-27T12:31:19.281Z,30.70
2019-06-27T12:34:09.790Z,30.30
2019-06-27T12:37:14.864Z,30.50
2019-06-27T12:40:20.939Z,30.00
2019-06-27T12:43:26.131Z,30.10
2019-06-27T12:46:37.394Z,30.80
2019-06-27T12:50:00.647Z,30.60
2019-06-27T12:52:49.146Z,30.70
2019-06-27T12:55:54.404Z,31.00
2019-06-27T12:58:59.617Z,30.60
2019-06-27T13:02:04.869Z,29.80
2019-06-27T13:05:10.644Z,30.10
2019-06-27T13:08:15.681Z,29.80
2019-06-27T13:11:20.777Z,30.30
2019-06-27T13:14:25.884Z,30.20
2019-06-27T13:17:31.135Z,30.60
2019-06-27T13:20:36.067Z,30.00
2019-06-27T13:23:41.207Z,30.50
2019-06-27T13:26:46.177Z,30.30
2019-06-27T13:29:51.464Z,30.60
2019-06-27T13:32:56.521Z,31.00
2019-06-27T13:36:01.758Z,30.00
2019-06-27T13:39:07.306Z,29.90
2019-06-27T13:42:12.501Z,30.20
2019-06-27T13:45:17.686Z,30.40
2019-06-27T13:48:22.679Z,30.80
2019-06-27T13:51:27.816Z,30.80
2019-06-27T13:54:32.696Z,30.60
2019-06-27T13:57:37.721Z,31.30
2019-06-27T14:00:45.026Z,31.60
2019-06-27T14:03:50.273Z,31.00
2019-06-27T14:06:55.333Z,30.60
2019-06-27T14:10:00.494Z,39.80
2019-06-27T14:13:05.484Z,42.80
2019-06-27T14:16:10.417Z,43.60
2019-06-27T14:19:15.479Z,44.90
2019-06-27T14:22:32.751Z,45.70
2019-06-27T14:25:27.248Z,47.50
2019-06-27T14:28:32.247Z,48.50
2019-06-27T14:31:37.325Z,49.00
2019-06-27T14:34:42.507Z,49.40
2019-06-27T14:37:47.375Z,49.80
2019-06-27T14:40:52.350Z,50.10
2019-06-27T14:43:57.319Z,50.40
2019-06-27T14:47:02.269Z,49.90
2019-06-27T14:50:07.659Z,50.20
2019-06-27T14:53:12.955Z,50.30
2019-06-27T14:56:17.993Z,49.90
2019-06-27T14:59:23.409Z,50.30
2019-06-27T15:02:29.274Z,50.30
2019-06-27T15:05:34.353Z,49.70
2019-06-27T15:08:39.393Z,49.50
2019-06-27T15:11:44.386Z,49.30
2019-06-27T15:14:50.617Z,49.40
2019-06-27T15:17:55.644Z,49.20
2019-06-27T15:21:00.567Z,48.80
2019-06-27T15:24:06.275Z,49.10
2019-06-27T15:27:11.853Z,49.50
2019-06-27T15:30:18.331Z,49.40
2019-06-27T15:33:23.280Z,49.60
2019-06-27T15:36:28.415Z,50.10
2019-06-27T15:39:33.572Z,49.90
2019-06-27T15:42:38.808Z,54.70
2019-06-27T15:45:45.594Z,57.20
2019-06-27T15:48:50.653Z,58.20
2019-06-27T15:51:59.482Z,59.30
2019-06-27T15:55:02.646Z,59.60
2019-06-27T15:58:07.834Z,60.90
2019-06-27T16:01:12.983Z,62.10
2019-06-27T16:04:30.211Z,61.90
2019-06-27T16:07:24.829Z,63.00
2019-06-27T16:10:30.213Z,61.20
2019-06-27T16:13:35.565Z,61.10
2019-06-27T16:16:40.730Z,60.50
2019-06-27T16:19:46.181Z,57.90
2019-06-27T16:22:51.247Z,56.90
2019-06-27T16:25:56.321Z,57.30
2019-06-27T16:29:01.267Z,57.50
2019-06-27T16:32:06.251Z,56.80
2019-06-27T16:35:12.886Z,57.70
2019-06-27T16:38:18.322Z,57.40
2019-06-27T16:41:23.332Z,58.30
2019-06-27T16:44:28.849Z,58.40
2019-06-27T16:47:34.052Z,58.70
2019-06-27T16:50:39.034Z,58.50
2019-06-27T16:53:47.337Z,59.20
2019-06-27T16:56:52.282Z,58.40
2019-06-27T16:59:57.234Z,58.10
2019-06-27T17:03:02.411Z,57.60
2019-06-27T17:06:07.634Z,57.90
2019-06-27T17:09:12.788Z,58.40
2019-06-27T17:12:17.807Z,58.20
2019-06-27T17:15:22.970Z,59.30
2019-06-27T17:18:27.971Z,59.50
2019-06-27T17:21:32.710Z,60.00
2019-06-27T17:24:37.793Z,60.80
2019-06-27T17:27:43.407Z,61.80
2019-06-27T17:30:51.461Z,61.60
2019-06-27T17:33:56.450Z,60.20
2019-06-27T17:37:01.405Z,61.10
2019-06-27T17:40:09.866Z,61.40
2019-06-27T17:43:13.798Z,62.50
2019-06-27T17:46:18.922Z,63.40
2019-06-27T17:49:24.268Z,63.40
2019-06-27T17:52:31.426Z,63.50
2019-06-27T17:55:36.404Z,64.00
2019-06-27T17:58:41.355Z,66.10
2019-06-27T18:01:46.662Z,67.10
2019-06-27T18:04:51.583Z,67.30
2019-06-27T18:07:56.724Z,67.80
2019-06-27T18:11:01.628Z,68.40
2019-06-27T18:14:06.766Z,68.80
2019-06-27T18:17:11.990Z,68.80
2019-06-27T18:20:17.254Z,68.60
2019-06-27T18:23:22.358Z,68.70
2019-06-27T18:26:28.032Z,68.90
2019-06-27T18:29:33.034Z,69.10
2019-06-27T18:32:38.132Z,69.00
2019-06-27T18:35:42.882Z,68.80
2019-06-27T18:38:47.916Z,69.30
2019-06-27T18:41:52.998Z,69.70
2019-06-27T18:44:57.960Z,69.90
2019-06-27T18:48:03.030Z,70.40
2019-06-27T18:51:08.194Z,70.90
2019-06-27T18:54:13.089Z,71.50
2019-06-27T18:57:18.043Z,71.70
2019-06-27T19:00:23.131Z,71.90
2019-06-27T19:03:28.076Z,72.20
2019-06-27T19:06:33.097Z,72.50
2019-06-27T19:09:38.121Z,72.60
2019-06-27T19:12:43.461Z,73.00
2019-06-27T19:15:48.586Z,73.70
2019-06-27T19:18:57.347Z,74.10
2019-06-27T19:22:39.083Z,74.60
2019-06-27T19:25:45.323Z,75.10
2019-06-27T19:28:50.394Z,75.70
2019-06-27T19:31:57.781Z,75.80
2019-06-27T19:35:02.856Z,76.30
2019-06-27T19:38:07.960Z,77.10
2019-06-27T19:41:13.013Z,77.50
2019-06-27T19:44:18.015Z,77.70
2019-06-27T19:47:23.038Z,78.50
2019-06-27T19:50:30.908Z,79.00
2019-06-27T19:53:35.925Z,79.10
2019-06-27T19:56:40.663Z,79.40
2019-06-27T19:59:46.043Z,78.90
2019-06-27T20:02:50.808Z,79.70
2019-06-27T20:05:55.630Z,80.00
2019-06-27T20:09:00.575Z,80.10
2019-06-27T20:12:05.745Z,80.20
2019-06-27T20:15:10.942Z,80.00
2019-06-27T20:18:15.723Z,80.40
2019-06-27T20:21:20.634Z,80.70
2019-06-27T20:24:25.552Z,80.70
2019-06-27T20:27:30.400Z,80.80
2019-06-27T20:30:35.230Z,80.50
2019-06-27T20:33:40.092Z,80.40
2019-06-27T20:36:45.241Z,80.70
2019-06-27T20:39:50.569Z,80.80
2019-06-27T20:42:55.703Z,81.00
2019-06-27T20:46:01.273Z,81.10
2019-06-27T20:49:06.190Z,81.20
2019-06-27T20:52:10.951Z,81.30
2019-06-27T20:55:15.771Z,81.10
2019-06-27T20:58:20.607Z,81.60
2019-06-27T21:01:25.495Z,81.80
2019-06-27T21:04:30.179Z,82.20
2019-06-27T21:07:35.457Z,82.20
2019-06-27T21:10:40.552Z,82.50
2019-06-27T21:13:45.698Z,82.60
2019-06-27T21:16:50.634Z,82.50
2019-06-27T21:19:55.605Z,82.90
2019-06-27T21:23:00.460Z,83.00
2019-06-27T21:26:06.069Z,83.50
2019-06-27T21:29:11.395Z,83.50
2019-06-27T21:32:30.587Z,84.30
2019-06-27T21:35:23.042Z,84.90
2019-06-27T21:38:28.039Z,85.50
2019-06-27T21:41:32.997Z,85.60
2019-06-27T21:44:38.518Z,85.50
2019-06-27T21:47:43.807Z,85.40
2019-06-27T21:50:48.873Z,85.70
2019-06-27T21:53:53.893Z,86.00
2019-06-27T21:56:58.955Z,86.10
2019-06-27T22:00:04.951Z,86.20
2019-06-27T22:03:10.198Z,86.80
2019-06-27T22:06:15.130Z,87.20
2019-06-27T22:09:24.986Z,87.80
2019-06-27T22:12:27.019Z,87.00
2019-06-27T22:15:32.546Z,87.10
2019-06-27T22:18:37.396Z,87.30
2019-06-27T22:21:42.754Z,87.50
2019-06-27T22:24:47.681Z,87.90
2019-06-27T22:27:53.959Z,88.00
2019-06-27T22:30:58.864Z,87.70
2019-06-27T22:34:03.870Z,87.60
2019-06-27T22:37:09.039Z,87.70
2019-06-27T22:40:32.016Z,87.90
2019-06-27T22:43:54.880Z,88.20
2019-06-27T22:47:18.056Z,87.30
2019-06-27T22:50:37.265Z,88.20
2019-06-27T22:53:51.754Z,88.60
2019-06-27T22:56:56.862Z,88.60
2019-06-27T23:00:01.922Z,87.80
2019-06-27T23:03:09.122Z,87.30
2019-06-27T23:06:14.432Z,84.40
2019-06-27T23:09:19.383Z,78.60
2019-06-27T23:12:24.652Z,76.60
2019-06-27T23:15:29.784Z,75.00
2019-06-27T23:18:38.552Z,76.00
2019-06-27T23:21:43.461Z,77.10
2019-06-27T23:24:48.576Z,76.10
2019-06-27T23:27:53.658Z,75.50
2019-06-27T23:30:58.657Z,76.70
2019-06-27T23:34:03.897Z,78.30
2019-06-27T23:37:08.874Z,81.00
2019-06-27T23:40:15.158Z,81.30
2019-06-27T23:43:20.370Z,81.90
2019-06-27T23:46:41.933Z,82.30
2019-06-27T23:49:47.020Z,83.20
2019-06-27T23:52:51.975Z,83.80
2019-06-27T23:55:57.073Z,84.60
2019-06-27T23:59:02.082Z,85.20
